Weather reports worldwide

Advertisment
Berlin/Tempelhof, Germany (10384): temperature & dewpoint: 09.09.2019 10:00:00 - 15.09.2019 10:00:00 (CEST)Berlin/Tempelhof, Germany (10384): temperature 5cm & temperature -5cm: 09.09.2019 10:00:00 - 15.09.2019 10:00:00 (CEST)Berlin/Tempelhof, Germany (10384): temperature -20cm & temperature -100cm: 09.09.2019 10:00:00 - 15.09.2019 10:00:00 (CEST)Berlin/Tempelhof, Germany (10384): wind speed & gusts: 09.09.2019 10:00:00 - 15.09.2019 10:00:00 (CEST)Berlin/Tempelhof, Germany (10384): wind direction: 09.09.2019 10:00:00 - 15.09.2019 10:00:00 (CEST)Berlin/Tempelhof, Germany (10384): reduced air pressure: 09.09.2019 10:00:00 - 15.09.2019 10:00:00 (CEST)Berlin/Tempelhof, Germany (10384): sunshine duration: 09.09.2019 10:00:00 - 15.09.2019 10:00:00 (CEST)Berlin/Tempelhof, Germany (10384): precipitation: 09.09.2019 10:00:00 - 15.09.2019 10:00:00 (CEST)
Date & Time tt [°C] td [°C] tt 5cm [°C] tt -5cm [°C] tt -20cm [°C] tt -100cm [°C] ff [km/h] ff [kn] fx [km/h] fx [kn] dd ppp [hPa] sd [min] rr [mm]
15.09.2019 10:00:00 16,3 8,0 17,0 14,1 15,4 17,5 13 7 23 13 WSW 1021,5 57 0,0
15.09.2019 09:00:00 13,4 6,8 13,7 13,0 15,5 17,5 13 7 23 13 SW 1021,7 60 0,0
15.09.2019 08:00:00 10,8 5,6 9,4 12,8 15,7 17,5 9 5 17 9 SSW 1022,5 37 0,0
15.09.2019 07:00:00 10,3 5,3 8,1 12,8 15,9 17,5 8 4 16 8 SSW 1023,0 0 0,0
15.09.2019 06:00:00 10,0 5,6 7,1 13,0 16,1 17,5 6 4 18 10 S 1024,0 0 0,0
15.09.2019 05:00:00 10,2 5,6 7,8 13,2 16,3 17,5 9 5 16 9 S 1024,7 0 0,0
15.09.2019 04:00:00 10,3 5,9 7,1 13,5 16,5 17,5 6 3 12 7 S 1025,7 0 0,0
15.09.2019 03:00:00 10,6 5,8 6,9 13,8 16,8 17,5 6 4 11 6 S 1026,5 0 0,0
15.09.2019 02:00:00 10,6 5,9 6,7 14,2 17,1 17,5 7 4 12 7 S 1027,2 0 0,0
15.09.2019 01:00:00 11,3 6,0 4,9 14,6 17,4 17,5 4 2 8 4 S 1028,1 0 0,0
15.09.2019 00:00:00 10,1 5,6 4,2 15,2 17,8 17,5 0 0 5 3 N 1029,1 0 0,0
14.09.2019 23:00:00 11,6 5,6 4,0 16,0 18,1 17,5 4 2 8 5 S 1029,4 0 0,0
14.09.2019 22:00:00 13,3 6,3 5,8 16,9 18,4 17,6 6 4 8 5 S 1029,7 0 0,0
14.09.2019 21:00:00 12,7 5,7 7,4 18,0 18,7 17,6 3 2 5 3 NNW 1030,7 0 0,0
14.09.2019 20:00:00 16,0 5,1 7,3 19,5 18,9 17,6 2 1 9 5 SW 1030,5 0 0,0
14.09.2019 19:00:00 17,6 5,3 14,6 21,3 18,9 17,6 6 3 12 7 W 1030,5 49 0,0
14.09.2019 18:00:00 18,5 4,9 18,7 23,2 18,6 17,6 10 5 17 9 WNW 1030,9 60 0,0
14.09.2019 17:00:00 19,2 5,2 21,5 24,1 18,2 17,6 8 5 24 13 WNW 1031,9 60 0,0
14.09.2019 16:00:00 18,9 5,0 23,0 24,3 17,6 17,6 11 6 22 12 W 1032,3 60 0,0
14.09.2019 15:00:00 18,9 4,7 23,2 23,6 17,0 17,6 11 6 20 11 W 1033,1 60 0,0
14.09.2019 14:00:00 18,0 5,4 22,7 21,8 16,4 17,6 7 4 21 12 NW 1033,5 52 0,0
14.09.2019 13:00:00 16,9 5,6 21,7 20,5 15,9 17,6 12 7 21 11 NNW 1034,3 53 0,0
14.09.2019 12:00:00 16,6 6,5 22,3 17,7 15,5 17,6 9 5 19 10 NNW 1034,9 59 0,0
14.09.2019 11:00:00 15,7 7,8 19,0 14,6 15,4 17,6 9 5 18 10 N 1035,1 60 0,0
14.09.2019 10:00:00 13,9 9,0 14,7 13,7 15,4 17,6 5 3 14 8 NNW 1034,9 60 0,0
14.09.2019 09:00:00 12,3 9,1 11,9 12,5 15,5 17,6 9 5 14 8 NNW 1035,0 53 0,0
14.09.2019 08:00:00 10,3 8,1 8,2 12,1 15,7 17,6 5 3 8 4 WNW 1034,8 43 0,0
14.09.2019 07:00:00 8,8 6,9 2,5 12,2 16,0 17,6 6 4 11 6 WNW 1034,7 0 0,0
14.09.2019 06:00:00 9,4 7,3 2,7 12,5 16,3 17,6 5 3 9 5 W 1034,3 0 0,0
14.09.2019 05:00:00 10,3 7,7 4,3 12,9 16,5 17,6 6 3 11 6 W 1034,0 0 0,0
14.09.2019 04:00:00 10,2 7,7 3,2 13,4 16,8 17,6 4 2 6 3 WSW 1034,0 0 0,0
14.09.2019 03:00:00 10,4 7,3 4,3 14,0 17,1 17,6 6 3 8 4 WNW 1034,1 0 0,0
14.09.2019 02:00:00 11,9 7,2 4,9 14,6 17,3 17,6 6 4 13 7 WNW 1034,1 0 0,0
14.09.2019 01:00:00 13,1 7,0 8,2 15,2 17,6 17,6 8 4 14 7 NW 1033,7 0 0,0
14.09.2019 00:00:00 13,4 6,7 8,5 15,7 17,8 17,6 8 5 18 10 NW 1033,3 0 0,0
13.09.2019 23:00:00 14,2 6,3 10,7 16,3 18,1 17,6 13 7 19 10 N 1032,9 0 0,0
13.09.2019 22:00:00 15,0 6,5 11,9 16,9 18,3 17,7 11 6 19 10 N 1032,5 0 0,0
13.09.2019 21:00:00 15,5 7,1 13,1 17,6 18,5 17,7 14 8 24 13 N 1031,9 0 0,0
13.09.2019 20:00:00 16,6 8,2 14,5 18,5 18,7 17,7 18 10 29 16 N 1031,2 0 0,0
13.09.2019 19:00:00 18,0 8,0 16,5 19,7 18,7 17,7 21 11 30 16 N 1030,5 20 0,0
13.09.2019 18:00:00 19,5 8,8 20,0 21,2 18,5 17,7 24 13 41 22 NW 1029,9 60 0,0
13.09.2019 17:00:00 19,9 9,9 20,8 21,5 18,3 17,7 28 15 41 22 NW 1029,5 40 0,0
13.09.2019 16:00:00 20,2 12,2 21,0 21,2 18,1 17,7 23 13 41 22 NW 1029,0 36 0,0
13.09.2019 15:00:00 18,4 13,2 19,7 19,5 17,9 17,7 23 12 41 22 NNW 1029,0 0 0,0
13.09.2019 14:00:00 19,1 13,7 19,0 20,4 17,6 17,7 39 21 51 28 NW 1027,8 14 0,0
13.09.2019 13:00:00 22,3 15,1 24,7 19,6 17,3 17,7 24 13 38 21 W 1027,0 20 0,0
13.09.2019 12:00:00 20,6 14,9 22,0 18,2 17,2 17,7 16 9 34 18 W 1026,9 0 0,0
13.09.2019 11:00:00 19,8 14,2 20,9 17,5 17,0 17,7 20 11 32 18 WSW 1026,8 1 0,0
13.09.2019 10:00:00 19,1 13,5 19,4 16,9 17,0 17,7 16 9 27 14 WSW 1026,6 0 0,0
13.09.2019 09:00:00 18,0 13,1 18,4 16,3 17,0 17,7 12 6 23 13 SW 1026,6 0 0,0
13.09.2019 08:00:00 17,0 12,8 16,7 15,9 17,0 17,7 12 6 20 11 SW 1026,5 0 0,0
13.09.2019 07:00:00 16,5 12,7 15,6 15,8 17,1 17,7 10 5 19 10 SW 1026,4 0 0,0
13.09.2019 06:00:00 16,1 12,5 15,3 15,7 17,2 17,7 11 6 18 10 SW 1026,3 0 0,0
13.09.2019 05:00:00 15,4 12,3 13,4 15,6 17,4 17,7 11 6 17 9 SW 1026,3 0 0,0
13.09.2019 04:00:00 15,6 12,5 13,4 15,9 17,5 17,7 10 5 18 10 SW 1026,3 0 0,0
13.09.2019 03:00:00 15,6 12,7 13,6 16,1 17,7 17,7 10 5 16 9 SW 1026,5 0 0,0
13.09.2019 02:00:00 16,1 13,2 14,0 16,4 17,8 17,7 11 6 15 8 SW 1026,6 0 0,0
13.09.2019 01:00:00 16,7 13,4 14,4 16,7 18,0 17,7 10 5 13 7 SW 1026,8 0 0,0
13.09.2019 00:00:00 17,2 13,4 12,8 17,1 18,2 17,7 6 4 12 7 SW 1027,0 0 0,0
12.09.2019 23:00:00 18,1 13,5 15,7 17,6 18,3 17,7 9 5 16 8 SW 1027,0 0 0,0
12.09.2019 22:00:00 18,6 13,5 16,0 17,9 18,5 17,8 7 4 15 8 SSW 1026,9 0 0,0
12.09.2019 21:00:00 19,4 13,6 16,7 18,4 18,6 17,8 8 5 14 8 SSW 1026,9 0 0,0
12.09.2019 20:00:00 20,3 13,7 17,2 19,2 18,6 17,8 7 4 15 8 SSW 1026,7 0 0,0
12.09.2019 19:00:00 21,4 13,7 19,9 20,1 18,6 17,8 9 5 26 14 SSW 1026,6 9 0,0
12.09.2019 18:00:00 22,0 13,0 22,2 21,1 18,4 17,8 13 7 28 15 WSW 1026,6 46 0,0
12.09.2019 17:00:00 22,4 13,4 25,0 21,6 18,0 17,8 15 8 29 16 WSW 1026,8 48 0,0
12.09.2019 16:00:00 21,7 13,1 24,7 21,0 17,7 17,8 14 7 27 15 SW 1027,0 25 0,0
12.09.2019 15:00:00 20,9 13,6 22,0 20,3 17,4 17,8 12 6 26 14 WSW 1027,4 11 0,0
12.09.2019 14:00:00 20,0 14,2 23,0 19,1 17,1 17,8 14 8 24 13 SW 1027,5 6 0,0
12.09.2019 13:00:00 18,9 14,0 21,7 18,8 16,9 17,8 13 7 21 11 SW 1027,6 20 0,0
12.09.2019 12:00:00 17,5 13,9 18,0 17,4 16,8 17,8 11 6 26 14 WSW 1027,6 0 0,0
12.09.2019 11:00:00 16,9 13,9 17,0 16,7 16,7 17,8 13 7 20 11 WSW 1027,3 0 0,0
12.09.2019 10:00:00 16,3 13,9 15,7 16,4 16,6 17,8 9 5 19 10 WSW 1026,8 0 0,0
12.09.2019 09:00:00 15,6 13,8 15,7 15,9 16,6 17,8 9 5 16 9 SW 1026,0 0 0,0
12.09.2019 08:00:00 15,0 13,7 14,7 15,7 16,6 17,8 8 4 16 9 SSW 1025,4 0 0,0
12.09.2019 07:00:00 15,0 13,7 14,4 15,6 16,7 17,9 9 5 17 9 WSW 1025,0 0 0,0
12.09.2019 06:00:00 15,0 13,7 14,3 15,6 16,7 17,9 10 6 21 11 WSW 1024,4 0 0,0
12.09.2019 05:00:00 14,8 13,8 14,3 15,6 16,8 17,9 10 5 19 11 WSW 1024,0 0 0,2
12.09.2019 04:00:00 14,8 13,8 14,2 15,6 16,8 17,9 11 6 18 10 WSW 1023,9 0 0,2
12.09.2019 03:00:00 15,3 12,9 14,0 15,5 16,9 17,9 13 7 33 18 W 1023,5 0 0,0
12.09.2019 02:00:00 16,4 9,9 15,5 15,4 17,1 17,9 11 6 17 9 W 1022,9 0 0,0
12.09.2019 01:00:00 16,3 8,5 14,7 15,5 17,2 17,9 8 4 19 10 SW 1022,3 0 0,0
12.09.2019 00:00:00 16,3 7,9 13,8 15,6 17,4 17,9 9 5 18 10 SSW 1021,9 0 0,0
11.09.2019 23:00:00 17,0 7,7 14,7 16,0 17,7 17,9 10 5 16 9 SSW 1021,9 0 0,0
11.09.2019 22:00:00 17,2 7,5 13,6 16,5 17,9 17,9 8 4 15 8 S 1021,8 0 0,0
11.09.2019 21:00:00 17,8 7,9 13,5 17,2 18,1 18,0 6 4 13 7 S 1021,5 0 0,0
11.09.2019 20:00:00 19,4 7,5 14,4 18,0 18,2 18,0 6 4 15 8 S 1021,4 0 0,0
11.09.2019 19:00:00 20,9 6,9 18,5 19,1 18,2 18,0 9 5 24 13 SSW 1021,3 19 0,0
11.09.2019 18:00:00 21,1 6,0 19,4 20,1 18,1 18,0 14 8 33 18 SSW 1021,3 28 0,0
11.09.2019 17:00:00 22,3 6,0 23,7 21,7 17,7 18,0 18 10 35 19 SSW 1021,1 60 0,0
11.09.2019 16:00:00 22,4 5,8 24,0 21,7 17,3 18,0 19 10 36 19 SW 1021,3 55 0,0
11.09.2019 15:00:00 22,0 5,4 25,4 21,4 16,7 18,0 16 9 33 18 SW 1021,8 58 0,0
11.09.2019 14:00:00 21,5 5,3 25,0 20,4 16,2 18,0 18 10 35 19 SSW 1022,2 60 0,0
11.09.2019 13:00:00 21,1 6,2 24,4 19,0 15,6 18,0 15 8 26 14 SW 1022,6 60 0,0
11.09.2019 12:00:00 20,0 6,4 22,9 16,9 15,3 18,0 14 8 27 14 SW 1022,9 60 0,0
11.09.2019 11:00:00 18,2 7,5 20,4 14,3 15,1 18,0 10 5 16 9 SSW 1023,1 60 0,0
11.09.2019 10:00:00 15,4 7,9 15,2 13,2 15,1 18,0 8 4 13 7 S 1023,0 60 0,0
11.09.2019 09:00:00 12,8 7,3 12,8 12,1 15,2 18,0 4 2 13 7 SSW 1022,7 60 0,0
11.09.2019 08:00:00 10,5 6,4 8,4 11,7 15,4 18,1 9 5 13 7 SSW 1022,5 44 0,0
11.09.2019 07:00:00 8,8 6,0 4,9 11,7 15,7 18,1 5 3 10 6 SSW 1022,1 0 0,0
11.09.2019 06:00:00 8,9 6,2 3,2 12,0 15,9 18,1 2 1 5 3 S 1021,6 0 0,0
11.09.2019 05:00:00 9,4 6,2 3,7 12,5 16,2 18,1 3 1 7 4 SSW 1021,3 0 0,0
11.09.2019 04:00:00 9,5 6,2 4,4 13,0 16,4 18,1 3 2 9 5 SSW 1021,4 0 0,0
11.09.2019 03:00:00 10,8 6,3 6,9 13,4 16,7 18,1 6 3 13 7 SW 1021,1 0 0,0
11.09.2019 02:00:00 11,5 6,5 8,1 13,8 16,9 18,1 8 4 13 7 SW 1020,8 0 0,0
11.09.2019 01:00:00 12,2 6,6 9,2 14,2 17,2 18,1 9 5 17 9 SW 1020,1 0 0,0
11.09.2019 00:00:00 13,1 6,3 10,3 14,7 17,4 18,1 11 6 18 10 SW 1019,9 0 0,0
10.09.2019 23:00:00 13,9 6,3 10,8 15,2 17,7 18,1 10 6 15 8 SW 1019,4 0 0,0
10.09.2019 22:00:00 14,6 6,4 10,7 15,8 17,9 18,1 9 5 13 7 SW 1019,0 0 0,0
10.09.2019 21:00:00 15,6 6,2 11,2 16,5 18,1 18,1 7 4 12 7 WSW 1018,6 0 0,0
10.09.2019 20:00:00 16,8 5,8 13,1 17,3 18,3 18,2 9 5 24 13 WSW 1017,8 0 0,0
10.09.2019 19:00:00 18,4 5,5 16,2 18,3 18,4 18,2 14 8 33 18 W 1017,3 59 0,0
10.09.2019 18:00:00 19,3 5,2 19,4 19,5 18,3 18,2 19 10 39 21 W 1016,9 37 0,0
10.09.2019 17:00:00 19,1 5,0 19,2 20,6 18,1 18,2 22 12 43 23 W 1016,4 50 0,0
10.09.2019 16:00:00 19,7 5,0 22,4 20,9 17,8 18,2 23 13 42 23 WSW 1016,0 60 0,0
10.09.2019 15:00:00 20,2 7,1 23,7 20,5 17,4 18,2 23 13 41 22 W 1015,6 51 0,0
10.09.2019 14:00:00 18,7 6,7 20,9 19,7 17,1 18,2 25 14 44 24 W 1015,2 45 0,0
10.09.2019 13:00:00 18,4 7,9 20,7 19,0 16,8 18,2 29 15 54 29 W 1014,9 59 0,0
10.09.2019 12:00:00 17,4 8,8 19,7 17,3 16,6 18,2 29 15 46 25 W 1014,6 57 0,0
10.09.2019 11:00:00 16,3 10,4 16,7 15,7 16,5 18,2 26 14 51 28 WSW 1014,1 54 0,0
10.09.2019 10:00:00 15,0 11,2 14,5 15,3 16,5 18,2 22 12 46 25 W 1013,3 27 0,0
10.09.2019 09:00:00 13,8 11,3 13,5 14,7 16,5 18,2 21 12 40 21 W 1012,8 1 0,0
10.09.2019 08:00:00 13,2 11,0 12,5 14,5 16,6 18,2 21 11 44 24 W 1012,3 0 0,0
10.09.2019 07:00:00 13,2 11,5 12,4 14,5 16,7 18,2 19 10 34 19 W 1012,1 0 0,0
10.09.2019 06:00:00 13,2 11,8 12,6 14,6 16,8 18,3 17 9 31 17 W 1011,6 0 0,0
10.09.2019 05:00:00 13,0 11,7 12,3 14,6 16,9 18,3 18 10 32 17 W 1011,1 0 0,0
10.09.2019 04:00:00 12,9 11,7 12,4 14,6 17,0 18,3 18 10 31 17 W 1011,1 0 0,0
10.09.2019 03:00:00 12,6 11,7 12,1 14,7 17,1 18,3 19 10 34 19 W 1010,9 0 0,0
10.09.2019 02:00:00 12,3 11,3 11,8 14,8 17,2 18,3 22 12 32 18 WNW 1010,8 0 0,4
10.09.2019 01:00:00 12,0 11,2 11,8 15,0 17,4 18,3 22 12 37 20 WNW 1010,8 0 0,7
10.09.2019 00:00:00 12,3 11,2 11,9 15,2 17,5 18,3 23 13 39 21 WNW 1010,7 0 0,0
09.09.2019 23:00:00 12,7 11,7 12,3 15,5 17,7 18,3 27 14 37 20 WNW 1010,2 0 0,0
09.09.2019 22:00:00 12,8 11,7 12,4 15,8 17,8 18,3 24 13 35 19 WNW 1010,2 0 0,0
09.09.2019 21:00:00 13,1 12,3 12,9 16,0 17,9 18,3 19 11 31 17 WNW 1010,1 0 0,0
09.09.2019 20:00:00 13,4 12,4 13,0 16,4 18,0 18,3 23 12 34 18 WNW 1009,7 0 0,8
09.09.2019 19:00:00 13,9 13,3 13,7 16,8 18,1 18,3 15 8 20 11 NW 1009,2 0 3,2
09.09.2019 18:00:00 14,3 13,4 14,2 17,2 18,1 18,3 13 7 19 10 NW 1009,1 0 0,4
09.09.2019 17:00:00 14,6 13,1 14,5 17,5 18,1 18,3 13 7 18 10 N 1009,0 0 0,1
09.09.2019 16:00:00 14,2 13,2 14,7 17,5 18,2 18,3 9 5 22 12 NNE 1009,4 0 0,1
09.09.2019 15:00:00 14,0 13,2 14,5 17,5 18,2 18,3 14 8 24 13 N 1009,7 0 1,4
09.09.2019 14:00:00 14,2 13,2 14,2 17,5 18,2 18,3 12 7 23 12 NNE 1009,8 0 0,4
09.09.2019 13:00:00 14,1 12,5 14,0 17,2 18,2 18,3 16 9 24 13 NNE 1010,1 0 1,1
09.09.2019 12:00:00 14,1 12,9 14,2 17,0 18,3 18,3 17 9 24 13 NNE 1010,6 0 1,3
09.09.2019 11:00:00 13,9 12,9 13,9 16,9 18,3 18,3 14 7 26 14 NNE 1011,0 0 1,9
09.09.2019 10:00:00 13,9 12,8 13,9 16,8 18,4 18,4 14 8 21 11 NNE 1011,7 0 1,5

tt = temperature
td = dewpoint
tt 5cm = temperature 5cm
tt -5cm = temperature -5cm
tt -20cm = temperature -20cm
tt -100cm = temperature -100cm
ff = wind speed
fx = gusts
dd = wind direction
ppp = reduced air pressure
sd = sunshine duration
rr = precipitation

Next stations